Time;durP1;ratioP1;P1;durP2;ratioP2;P2;SDS_P1;SDS_P2;PMS_P1;PMS_P2;Temp;Humidity;BMP_temperature;BMP_pressure;BME280_temperature;BME280_humidity;BME280_pressure;Samples;Min_cycle;Max_cycle;Signal;HPM_P1;HPM_P2
2021/05/02 00:02:28;;;;;;;27.63;21.20;;;;;5.10;101112.00;;;;10486913;28;20236;-73
2021/05/02 00:07:34;;;;;;;27.57;20.77;;;;;5.30;101105.00;;;;10487299;28;20275;-72
2021/05/02 00:12:36;;;;;;;28.30;21.60;;;;;5.50;101113.00;;;;10486568;28;20638;-72
2021/05/02 00:17:39;;;;;;;28.73;19.60;;;;;5.60;101115.00;;;;10503467;28;20193;-72
2021/05/02 00:22:45;;;;;;;25.53;19.80;;;;;5.70;101119.00;;;;10469853;28;20209;-72
2021/05/02 00:27:47;;;;;;;27.40;21.30;;;;;5.80;101118.00;;;;10504249;28;20198;-72
2021/05/02 00:32:51;;;;;;;27.47;20.23;;;;;5.80;101125.00;;;;10504496;28;20190;-72
2021/05/02 00:37:53;;;;;;;29.07;20.90;;;;;5.80;101123.00;;;;10502045;28;20652;-72
2021/05/02 00:42:58;;;;;;;29.33;21.00;;;;;5.90;101134.00;;;;10468838;28;20220;-72
2021/05/02 00:48:05;;;;;;;28.90;21.40;;;;;5.90;101126.00;;;;10468589;28;20201;-72
2021/05/02 00:53:16;;;;;;;27.07;19.73;;;;;6.00;101135.00;;;;10502319;28;20182;-72
2021/05/02 00:58:44;;;;;;;28.43;20.07;;;;;6.00;101128.00;;;;10451428;28;20653;-72
2021/05/02 01:03:47;;;;;;;26.67;20.50;;;;;6.00;101134.00;;;;10468659;28;20197;-76
2021/05/02 01:08:50;;;;;;;28.23;20.97;;;;;6.00;101131.00;;;;10468409;28;20249;-76
2021/05/02 01:14:02;;;;;;;27.83;21.33;;;;;6.00;101142.00;;;;10468019;28;20189;-76
2021/05/02 01:19:07;;;;;;;31.43;21.53;;;;;5.90;101138.00;;;;10501127;28;20185;-76
2021/05/02 01:24:11;;;;;;;27.97;21.30;;;;;5.80;101132.00;;;;10450860;28;20193;-76
2021/05/02 01:29:15;;;;;;;29.07;20.73;;;;;5.70;101137.00;;;;10500837;28;20240;-76
2021/05/02 01:34:17;;;;;;;29.27;19.63;;;;;5.60;101139.00;;;;10483487;28;20200;-76
2021/05/02 01:39:20;;;;;;;27.33;19.77;;;;;5.50;101135.00;;;;10483445;28;20280;-76
2021/05/02 01:44:21;;;;;;;32.37;20.87;;;;;5.40;101138.00;;;;10517232;28;20185;-76
2021/05/02 01:49:23;;;;;;;26.93;20.33;;;;;5.30;101138.00;;;;10499604;28;20316;-76
2021/05/02 01:54:31;;;;;;;31.40;21.47;;;;;5.20;101147.00;;;;10498620;28;20194;-76
2021/05/02 01:59:34;;;;;;;33.67;22.90;;;;;5.20;101143.00;;;;10482776;28;20189;-76
2021/05/02 02:04:40;;;;;;;30.40;22.03;;;;;5.10;101147.00;;;;10482463;28;20190;-77
2021/05/02 02:09:41;;;;;;;32.77;22.97;;;;;5.10;101147.00;;;;10498645;28;20572;-76
2021/05/02 02:14:53;;;;;;;27.60;21.63;;;;;5.00;101151.00;;;;10481859;28;20682;-76
2021/05/02 02:19:55;;;;;;;35.97;24.17;;;;;5.10;101153.00;;;;10465140;28;20197;-75
2021/05/02 02:25:01;;;;;;;33.40;23.33;;;;;5.10;101161.00;;;;10510868;28;20201;-75
2021/05/02 02:30:08;;;;;;;33.33;23.30;;;;;5.20;101170.00;;;;10489886;28;20215;-75
2021/05/02 02:35:13;;;;;;;29.27;22.73;;;;;5.20;101165.00;;;;10489899;28;20246;-75
2021/05/02 02:40:15;;;;;;;34.60;23.83;;;;;5.30;101164.00;;;;10473056;28;20223;-75
2021/05/02 02:45:17;;;;;;;33.37;24.60;;;;;5.40;101170.00;;;;10505600;28;20258;-75
2021/05/02 02:50:20;;;;;;;35.23;24.77;;;;;5.50;101175.00;;;;10522790;28;20216;-75
2021/05/02 02:55:23;;;;;;;35.87;24.33;;;;;5.50;101180.00;;;;10506521;28;20299;-76
2021/05/02 03:00:30;;;;;;;56.30;35.83;;;;;5.50;101180.00;;;;10463730;28;20204;-75
2021/05/02 03:05:33;;;;;;;34.60;24.17;;;;;5.50;101190.00;;;;10479723;28;20210;-75
2021/05/02 03:10:35;;;;;;;38.23;25.10;;;;;5.50;101185.00;;;;10479833;28;20213;-75
2021/05/02 03:15:39;;;;;;;36.00;24.87;;;;;5.30;101192.00;;;;10463181;28;20189;-76
2021/05/02 03:20:44;;;;;;;36.70;25.03;;;;;5.20;101187.00;;;;10463223;28;20629;-75
2021/05/02 03:25:48;;;;;;;33.67;23.90;;;;;5.20;101192.00;;;;10496867;28;20200;-75
2021/05/02 03:30:49;;;;;;;35.93;24.07;;;;;5.20;101197.00;;;;10463689;28;20228;-75
2021/05/02 03:35:51;;;;;;;35.60;25.53;;;;;5.10;101204.00;;;;10446360;28;20190;-75
2021/05/02 03:40:55;;;;;;;36.27;25.63;;;;;4.90;101200.00;;;;10479509;28;20698;-75
2021/05/02 03:45:57;;;;;;;39.07;24.83;;;;;4.80;101205.00;;;;10462746;28;20224;-75
2021/05/02 03:50:59;;;;;;;36.90;25.03;;;;;4.60;101219.00;;;;10446325;28;20263;-75
2021/05/02 03:56:02;;;;;;;37.23;25.47;;;;;4.60;101220.00;;;;10484389;28;20568;-75
2021/05/02 04:01:03;;;;;;;34.93;25.20;;;;;4.40;101227.00;;;;10538778;28;20234;-75
2021/05/02 04:06:04;;;;;;;35.77;24.63;;;;;4.30;101230.00;;;;10470737;28;20706;-76
2021/05/02 04:11:05;;;;;;;35.53;24.13;;;;;4.30;101237.00;;;;10487177;28;20259;-75
2021/05/02 04:16:07;;;;;;;40.07;26.17;;;;;4.30;101244.00;;;;10503719;28;20188;-75
2021/05/02 04:21:13;;;;;;;40.63;26.03;;;;;4.30;101244.00;;;;10440229;28;20182;-75
2021/05/02 04:26:15;;;;;;;46.67;28.97;;;;;4.30;101244.00;;;;10486258;28;20266;-75
2021/05/02 04:31:17;;;;;;;39.43;27.80;;;;;4.40;101245.00;;;;10521907;28;20236;-75
2021/05/02 04:36:19;;;;;;;47.43;30.10;;;;;4.40;101256.00;;;;10527411;28;20188;-75
2021/05/02 04:41:20;;;;;;;38.77;28.80;;;;;4.40;101259.00;;;;10510717;28;20652;-75
2021/05/02 04:46:22;;;;;;;47.37;31.60;;;;;4.40;101276.00;;;;10526042;28;20215;-75
2021/05/02 04:51:23;;;;;;;43.93;29.77;;;;;4.50;101276.00;;;;10490983;28;20216;-75
2021/05/02 04:56:24;;;;;;;52.27;33.80;;;;;4.60;101278.00;;;;10465933;28;20572;-75
2021/05/02 05:01:26;;;;;;;48.63;34.10;;;;;4.70;101277.00;;;;10483292;28;20185;-75
2021/05/02 05:06:27;;;;;;;53.03;32.97;;;;;4.90;101286.00;;;;10465535;28;20275;-75
2021/05/02 05:11:28;;;;;;;45.33;33.07;;;;;5.10;101290.00;;;;10465607;28;20213;-75
2021/05/02 05:16:30;;;;;;;53.80;35.87;;;;;5.40;101305.00;;;;10465310;28;20194;-75
2021/05/02 05:21:31;;;;;;;48.90;32.73;;;;;5.90;101311.00;;;;10465275;28;20272;-75
2021/05/02 05:26:33;;;;;;;49.73;33.77;;;;;6.20;101309.00;;;;10481519;28;20200;-75
2021/05/02 05:31:34;;;;;;;46.13;32.57;;;;;6.50;101327.00;;;;10481525;28;20206;-75
2021/05/02 05:36:36;;;;;;;45.60;31.87;;;;;6.90;101327.00;;;;10464680;28;20766;-74
2021/05/02 05:41:37;;;;;;;41.37;28.50;;;;;7.30;101335.00;;;;10464903;28;20284;-75
2021/05/02 05:46:38;;;;;;;32.33;24.70;;;;;7.60;101347.00;;;;10418768;28;608806;-75
2021/05/02 05:51:40;;;;;;;30.30;23.40;;;;;7.90;101355.00;;;;10458129;28;20911;-75
2021/05/02 05:56:41;;;;;;;29.93;23.67;;;;;8.50;101366.00;;;;10462797;28;20204;-75
2021/05/02 06:01:43;;;;;;;27.00;19.93;;;;;9.00;101365.00;;;;10507576;28;20193;-75
2021/05/02 06:06:44;;;;;;;21.97;16.87;;;;;9.40;101368.00;;;;10490764;28;20216;-75
2021/05/02 06:11:47;;;;;;;19.43;15.67;;;;;9.80;101375.00;;;;10428362;28;20206;-75
2021/05/02 06:16:48;;;;;;;24.90;16.37;;;;;10.20;101379.00;;;;10440780;28;20201;-76
2021/05/02 06:21:50;;;;;;;17.87;15.17;;;;;10.80;101380.00;;;;10427025;28;20197;-76
2021/05/02 06:26:51;;;;;;;16.10;13.43;;;;;11.70;101380.00;;;;10498777;28;20198;-76
2021/05/02 06:31:53;;;;;;;17.93;12.73;;;;;11.80;101390.00;;;;10464165;28;20232;-75
2021/05/02 06:36:58;;;;;;;21.13;14.53;;;;;10.90;101395.00;;;;10456174;28;20725;-75
2021/05/02 06:42:00;;;;;;;19.43;15.07;;;;;10.40;101399.00;;;;10423107;28;20229;-75
2021/05/02 06:47:02;;;;;;;19.27;16.00;;;;;11.10;101390.00;;;;10423003;28;20201;-75
2021/05/02 06:52:04;;;;;;;18.03;13.20;;;;;12.00;101400.00;;;;10455940;28;20218;-75
2021/05/02 06:57:05;;;;;;;14.37;11.70;;;;;13.10;101391.00;;;;10464073;28;20197;-75
2021/05/02 07:02:07;;;;;;;9.70;7.77;;;;;13.20;101393.00;;;;10478736;28;20181;-75
2021/05/02 07:07:09;;;;;;;17.60;9.53;;;;;12.40;101406.00;;;;10496967;28;20216;-75
2021/05/02 07:12:11;;;;;;;11.57;8.87;;;;;11.80;101410.00;;;;10463082;28;20221;-75
2021/05/02 07:17:14;;;;;;;11.97;8.47;;;;;11.30;101419.00;;;;10496542;28;20243;-75
2021/05/02 07:22:18;;;;;;;13.00;7.93;;;;;10.90;101424.00;;;;10479609;28;20194;-75
2021/05/02 07:27:19;;;;;;;13.53;8.23;;;;;11.80;101427.00;;;;10496617;28;20194;-75
2021/05/02 07:32:21;;;;;;;10.97;7.30;;;;;12.50;101430.00;;;;10459439;28;20226;-76
2021/05/02 07:37:22;;;;;;;8.90;6.47;;;;;13.40;101433.00;;;;10421528;28;20201;-75
2021/05/02 07:42:23;;;;;;;10.63;5.50;;;;;13.60;101440.00;;;;10470543;28;20200;-76
2021/05/02 07:47:25;;;;;;;9.10;5.53;;;;;13.20;101429.00;;;;10479415;28;20201;-76
2021/05/02 07:52:27;;;;;;;6.30;4.93;;;;;13.60;101428.00;;;;10462235;28;20213;-76
2021/05/02 07:57:28;;;;;;;7.00;4.73;;;;;14.70;101424.00;;;;10512812;28;20190;-76
2021/05/02 08:02:29;;;;;;;9.87;4.90;;;;;15.00;101424.00;;;;10492966;28;20194;-75
2021/05/02 08:07:31;;;;;;;8.03;2.90;;;;;13.30;101423.00;;;;10458148;28;20739;-76
2021/05/02 08:12:32;;;;;;;5.73;2.43;;;;;11.60;101434.00;;;;10490373;28;20213;-76
2021/05/02 08:17:35;;;;;;;4.67;2.33;;;;;10.70;101430.00;;;;10486572;28;20544;-75
2021/05/02 08:22:36;;;;;;;3.73;1.67;;;;;11.30;101418.00;;;;10480939;28;20222;-75
2021/05/02 08:27:37;;;;;;;2.57;1.70;;;;;13.70;101413.00;;;;10515344;28;20206;-75
2021/05/02 08:32:39;;;;;;;4.63;1.90;;;;;15.10;101409.00;;;;10474478;28;20218;-75
2021/05/02 08:37:40;;;;;;;4.30;1.70;;;;;15.90;101411.00;;;;10469605;28;20285;-76
2021/05/02 08:42:42;;;;;;;4.70;2.07;;;;;17.10;101411.00;;;;10472066;28;20197;-76
2021/05/02 08:47:47;;;;;;;3.47;1.60;;;;;17.30;101418.00;;;;10468528;28;20721;-76
2021/05/02 08:52:53;;;;;;;3.83;2.20;;;;;14.60;101421.00;;;;10467490;28;20595;-75
2021/05/02 08:57:54;;;;;;;6.03;1.90;;;;;15.90;101421.00;;;;10501540;28;20645;-75
2021/05/02 09:02:56;;;;;;;3.67;1.57;;;;;15.30;101417.00;;;;10502504;28;20632;-75
2021/05/02 09:07:58;;;;;;;4.67;1.50;;;;;15.40;101420.00;;;;10501492;28;20563;-76
2021/05/02 09:13:01;;;;;;;4.27;1.73;;;;;16.80;101420.00;;;;10502520;28;20213;-76
2021/05/02 09:18:18;;;;;;;6.73;2.30;;;;;18.10;101416.00;;;;10462450;28;20250;-76
2021/05/02 09:23:20;;;;;;;4.40;1.60;;;;;16.60;101424.00;;;;10460525;28;20198;-76
2021/05/02 09:28:43;;;;;;;1.93;1.60;;;;;14.30;101430.00;;;;10455691;28;20255;-75
2021/05/02 09:33:45;;;;;;;3.20;1.20;;;;;15.20;101419.00;;;;10442281;28;20263;-75
2021/05/02 09:38:48;;;;;;;3.97;1.53;;;;;17.30;101401.00;;;;10462061;28;20718;-75
2021/05/02 09:43:50;;;;;;;4.00;2.20;;;;;16.60;101433.00;;;;10483274;28;20194;-75
2021/05/02 09:48:57;;;;;;;3.63;2.17;;;;;14.40;101437.00;;;;10449976;28;20229;-75
2021/05/02 09:54:05;;;;;;;5.47;2.30;;;;;13.60;101441.00;;;;10462412;28;20202;-75
2021/05/02 09:59:26;;;;;;;5.20;2.33;;;;;14.00;101438.00;;;;10490247;28;20194;-75
2021/05/02 10:04:31;;;;;;;7.23;2.63;;;;;14.60;101438.00;;;;10466415;28;20257;-75
2021/05/02 10:09:33;;;;;;;4.43;2.70;;;;;14.20;101437.00;;;;10498687;28;20213;-75
2021/05/02 10:14:42;;;;;;;7.73;2.60;;;;;13.80;101444.00;;;;10457528;28;20543;-75
2021/05/02 10:19:44;;;;;;;5.93;2.33;;;;;13.30;101443.00;;;;10456820;28;20232;-75
2021/05/02 10:24:46;;;;;;;4.60;1.80;;;;;13.70;101435.00;;;;10467915;28;20201;-75
2021/05/02 10:29:49;;;;;;;4.90;2.10;;;;;13.10;101442.00;;;;10497864;28;20241;-75
2021/05/02 10:35:06;;;;;;;1.60;1.47;;;;;15.40;101424.00;;;;10481479;28;20657;-75
2021/05/02 10:40:19;;;;;;;2.90;1.90;;;;;16.70;101433.00;;;;10492528;28;20194;-76
2021/05/02 10:50:46;;;;;;;1.73;1.60;;;;;12.70;101457.00;;;;10455836;28;20237;-75
2021/05/02 10:55:58;;;;;;;6.97;2.43;;;;;11.20;101480.00;;;;10437671;28;20201;-75
2021/05/02 11:01:04;;;;;;;3.50;2.73;;;;;10.30;101477.00;;;;10453216;28;20197;-75
2021/05/02 11:06:11;;;;;;;3.93;2.73;;;;;11.10;101470.00;;;;10480506;28;20221;-74
2021/05/02 11:11:30;;;;;;;6.23;2.50;;;;;12.30;101455.00;;;;10480068;28;20214;-74
2021/05/02 11:16:32;;;;;;;4.43;2.63;;;;;13.50;101452.00;;;;10463332;28;20276;-75
2021/05/02 11:21:46;;;;;;;3.93;2.37;;;;;14.30;101454.00;;;;10497486;28;20185;-75
2021/05/02 11:32:03;;;;;;;4.23;2.87;;;;;15.60;101459.00;;;;10479774;28;20217;-75
2021/05/02 11:37:05;;;;;;;4.90;2.27;;;;;16.20;101445.00;;;;10462692;28;20201;-76
2021/05/02 11:42:08;;;;;;;3.53;2.70;;;;;14.30;101470.00;;;;10482657;28;20645;-75
2021/05/02 11:47:12;;;;;;;4.33;2.83;;;;;11.20;101478.00;;;;10471091;28;20533;-75
2021/05/02 11:52:15;;;;;;;5.77;3.40;;;;;10.20;101471.00;;;;10503755;28;20736;-75
2021/05/02 11:57:16;;;;;;;5.87;3.17;;;;;10.50;101476.00;;;;10519146;28;20196;-74
2021/05/02 12:02:17;;;;;;;6.47;3.10;;;;;10.90;101481.00;;;;10510030;28;20551;-70
2021/05/02 12:07:21;;;;;;;3.20;2.87;;;;;11.70;101477.00;;;;10522741;28;20325;-74
2021/05/02 12:12:22;;;;;;;4.20;3.10;;;;;13.10;101459.00;;;;10460293;28;20221;-75
2021/05/02 12:17:23;;;;;;;4.73;2.73;;;;;14.20;101466.00;;;;10477267;28;20197;-74
2021/05/02 12:22:25;;;;;;;3.93;2.67;;;;;16.20;101460.00;;;;10500176;28;20225;-75
2021/05/02 12:27:27;;;;;;;3.57;2.20;;;;;16.10;101450.00;;;;10444007;28;20209;-75
2021/05/02 12:32:29;;;;;;;4.90;2.40;;;;;17.30;101442.00;;;;10497190;28;20305;-75
2021/05/02 12:37:34;;;;;;;3.00;2.37;;;;;18.00;101446.00;;;;10447364;28;20229;-75
2021/05/02 12:42:37;;;;;;;2.37;2.07;;;;;17.30;101447.00;;;;10448240;28;20274;-75
2021/05/02 12:47:49;;;;;;;3.67;2.57;;;;;17.30;101449.00;;;;10494861;28;20211;-76
2021/05/02 12:52:53;;;;;;;2.57;2.37;;;;;17.20;101437.00;;;;10483570;28;20217;-76
2021/05/02 12:57:59;;;;;;;2.97;2.22;;;;;18.60;101440.00;;;;10443239;28;20198;-76
2021/05/02 13:03:41;;;;;;;4.03;2.58;;;;;20.00;101439.00;;;;10453765;28;20195;-76
2021/05/02 13:08:57;;;;;;;3.05;2.70;;;;;19.80;101441.00;;;;10499863;28;20633;-76
2021/05/02 13:14:21;;;;;;;3.20;2.55;;;;;17.50;101449.00;;;;10483710;28;20668;-76
2021/05/02 13:19:31;;;;;;;3.83;2.60;;;;;15.10;101459.00;;;;10450954;28;20556;-76
2021/05/02 13:24:32;;;;;;;4.80;2.60;;;;;13.60;101456.00;;;;10469810;28;20193;-76
2021/05/02 13:29:45;;;;;;;7.10;2.20;;;;;13.10;101457.00;;;;10475219;28;20202;-76
2021/05/02 13:34:50;;;;;;;3.13;2.53;;;;;13.70;101462.00;;;;10459092;28;20189;-76
2021/05/02 13:39:51;;;;;;;2.70;2.40;;;;;15.90;101461.00;;;;10479386;28;20583;-76
2021/05/02 13:44:53;;;;;;;4.73;2.47;;;;;17.30;101462.00;;;;10450209;28;20192;-75
2021/05/02 13:49:55;;;;;;;2.77;2.30;;;;;16.90;101447.00;;;;10448436;28;20214;-76
2021/05/02 13:54:58;;;;;;;4.33;2.53;;;;;16.80;101461.00;;;;10505515;28;20573;-76
2021/05/02 13:59:59;;;;;;;3.67;2.57;;;;;16.60;101448.00;;;;10482572;28;20190;-76
2021/05/02 14:05:03;;;;;;;3.33;2.30;;;;;15.90;101454.00;;;;10477497;28;20213;-76
2021/05/02 14:10:07;;;;;;;5.03;2.30;;;;;15.70;101453.00;;;;10456235;28;20222;-76
2021/05/02 14:15:09;;;;;;;3.50;2.57;;;;;18.00;101441.00;;;;10491293;28;20206;-76
2021/05/02 14:20:11;;;;;;;5.50;2.50;;;;;23.70;101439.00;;;;10453076;28;20190;-76
2021/05/02 14:25:12;;;;;;;5.20;3.42;;;;;24.80;101434.00;;;;10490683;28;20190;-76
2021/05/02 14:30:13;;;;;;;3.05;2.60;;;;;19.00;101459.00;;;;10514683;28;20237;-76
2021/05/02 14:35:15;;;;;;;3.87;2.80;;;;;16.70;101459.00;;;;10497937;28;20212;-76
2021/05/02 14:40:16;;;;;;;3.60;2.67;;;;;23.90;101441.00;;;;10463635;28;20213;-76
2021/05/02 14:45:18;;;;;;;5.63;3.13;;;;;18.00;101455.00;;;;10447321;28;20201;-76
2021/05/02 14:50:20;;;;;;;6.33;3.37;;;;;15.90;101452.00;;;;10475753;28;20214;-76
2021/05/02 14:55:22;;;;;;;6.13;3.20;;;;;14.60;101450.00;;;;10465413;28;20255;-76
2021/05/02 15:00:25;;;;;;;4.63;3.07;;;;;15.10;101448.00;;;;10481283;28;20255;-76
2021/05/02 15:05:27;;;;;;;4.97;3.00;;;;;14.60;101444.00;;;;10499484;28;20217;-76
2021/05/02 15:10:28;;;;;;;4.07;2.63;;;;;18.40;101426.00;;;;10490196;28;20232;-76
2021/05/02 15:15:29;;;;;;;4.53;3.23;;;;;16.50;101453.00;;;;10460199;28;20555;-76
2021/05/02 15:20:31;;;;;;;3.20;2.60;;;;;18.20;101423.00;;;;10452270;28;20584;-76
2021/05/02 15:25:32;;;;;;;2.97;2.10;;;;;17.80;101452.00;;;;10493300;28;20224;-76
2021/05/02 15:30:33;;;;;;;6.27;2.83;;;;;15.90;101458.00;;;;10461131;28;20200;-76
2021/05/02 15:35:35;;;;;;;4.50;2.67;;;;;14.60;101443.00;;;;10444152;28;20288;-76
2021/05/02 15:40:36;;;;;;;3.03;2.40;;;;;22.60;101433.00;;;;10493091;28;20718;-76
2021/05/02 15:45:38;;;;;;;2.83;2.20;;;;;22.80;101450.00;;;;10493419;28;20205;-76
2021/05/02 15:50:39;;;;;;;2.30;1.70;;;;;17.50;101457.00;;;;10475886;28;20201;-76
2021/05/02 15:55:40;;;;;;;3.13;2.08;;;;;20.30;101439.00;;;;10460845;28;20193;-76
2021/05/02 16:00:42;;;;;;;3.13;1.88;;;;;18.40;101438.00;;;;10478472;28;20194;-76
2021/05/02 16:05:43;;;;;;;2.35;1.55;;;;;18.20;101460.00;;;;10461187;28;20258;-76
2021/05/02 16:10:45;;;;;;;4.53;1.80;;;;;15.90;101473.00;;;;10477113;28;20206;-76
2021/05/02 16:15:46;;;;;;;2.57;1.87;;;;;14.60;101464.00;;;;10521380;28;20224;-76
2021/05/02 16:20:49;;;;;;;3.27;1.70;;;;;13.80;101456.00;;;;10472416;28;20185;-76
2021/05/02 16:25:51;;;;;;;1.60;1.20;;;;;13.50;101460.00;;;;10493470;28;20190;-76
2021/05/02 16:30:57;;;;;;;1.53;1.27;;;;;13.20;101465.00;;;;10475737;28;20266;-76
2021/05/02 16:35:59;;;;;;;1.93;1.73;;;;;12.90;101467.00;;;;10508684;28;20200;-76
2021/05/02 16:41:03;;;;;;;1.83;1.40;;;;;12.80;101475.00;;;;10501629;28;20194;-76
2021/05/02 16:46:04;;;;;;;3.47;1.20;;;;;12.60;101477.00;;;;10468558;28;20197;-76
2021/05/02 16:51:05;;;;;;;4.93;1.93;;;;;12.40;101482.00;;;;10485650;28;20210;-76
2021/05/02 16:56:07;;;;;;;2.10;1.40;;;;;12.40;101478.00;;;;10492080;28;20197;-77
2021/05/02 17:01:09;;;;;;;2.57;1.07;;;;;12.40;101480.00;;;;10459846;28;20190;-77
2021/05/02 17:06:10;;;;;;;1.40;1.20;;;;;12.40;101474.00;;;;10431753;28;20210;-77
2021/05/02 17:11:12;;;;;;;2.20;1.37;;;;;12.30;101486.00;;;;10431063;28;20213;-77
2021/05/02 17:16:13;;;;;;;3.03;1.50;;;;;12.20;101477.00;;;;10460248;28;20244;-77
2021/05/02 17:21:15;;;;;;;1.10;1.00;;;;;12.00;101474.00;;;;10460437;28;20197;-77
2021/05/02 17:26:16;;;;;;;1.23;1.10;;;;;11.80;101474.00;;;;10479406;28;20223;-77
2021/05/02 17:31:18;;;;;;;3.30;0.97;;;;;11.60;101490.00;;;;10452507;28;20219;-77
2021/05/02 17:36:19;;;;;;;1.60;1.27;;;;;11.30;101494.00;;;;10483865;28;20270;-77
2021/05/02 17:41:20;;;;;;;2.63;1.10;;;;;11.20;101493.00;;;;10461233;28;20197;-77
2021/05/02 17:46:23;;;;;;;1.73;1.20;;;;;11.00;101491.00;;;;10478062;28;20208;-76
2021/05/02 17:51:24;;;;;;;3.27;1.43;;;;;10.90;101495.00;;;;10472273;28;20209;-76
2021/05/02 17:56:26;;;;;;;3.03;1.63;;;;;10.80;101497.00;;;;10489871;28;20209;-77
2021/05/02 18:01:27;;;;;;;1.63;1.23;;;;;10.70;101508.00;;;;10474869;28;20185;-76
2021/05/02 18:06:29;;;;;;;2.47;1.53;;;;;10.60;101505.00;;;;10462072;28;20216;-77
2021/05/02 18:11:30;;;;;;;2.63;1.50;;;;;10.40;101510.00;;;;10482818;28;20202;-77
2021/05/02 18:16:32;;;;;;;3.10;1.40;;;;;10.30;101502.00;;;;10492105;28;20193;-76
2021/05/02 18:21:34;;;;;;;2.07;1.40;;;;;10.20;101504.00;;;;10459833;28;20189;-76
2021/05/02 18:26:36;;;;;;;3.13;1.43;;;;;10.10;101514.00;;;;10439539;28;20206;-77
2021/05/02 18:31:39;;;;;;;3.70;1.20;;;;;9.90;101516.00;;;;10498747;28;20201;-77
2021/05/02 18:36:42;;;;;;;2.17;1.50;;;;;9.90;101524.00;;;;10494692;28;20701;-76
2021/05/02 18:41:47;;;;;;;2.07;1.70;;;;;9.70;101534.00;;;;10460547;28;20213;-76
2021/05/02 18:46:48;;;;;;;1.83;1.73;;;;;9.50;101529.00;;;;10443995;28;20217;-77
2021/05/02 18:51:50;;;;;;;3.13;1.77;;;;;9.20;101545.00;;;;10456483;28;20213;-77
2021/05/02 18:56:52;;;;;;;5.10;2.57;;;;;8.90;101542.00;;;;10475365;28;20703;-76
2021/05/02 19:01:54;;;;;;;8.43;3.77;;;;;8.60;101552.00;;;;10451860;28;20243;-76
2021/05/02 19:06:55;;;;;;;4.00;2.90;;;;;8.30;101564.00;;;;10459034;28;20216;-77
2021/05/02 19:11:56;;;;;;;2.90;2.50;;;;;8.10;101566.00;;;;10509961;28;20220;-77
2021/05/02 19:16:58;;;;;;;3.93;2.20;;;;;7.90;101565.00;;;;10445415;28;20713;-77
2021/05/02 19:22:01;;;;;;;4.33;2.70;;;;;7.60;101574.00;;;;10459809;28;20185;-76
2021/05/02 19:27:02;;;;;;;4.30;3.00;;;;;7.40;101580.00;;;;10460425;28;20194;-77
2021/05/02 19:32:04;;;;;;;7.03;3.70;;;;;7.10;101584.00;;;;10460357;28;20208;-77
2021/05/02 19:37:06;;;;;;;7.40;3.80;;;;;6.90;101583.00;;;;10476802;28;20402;-77
2021/05/02 19:42:10;;;;;;;6.93;4.70;;;;;6.70;101587.00;;;;10472317;28;20193;-77
2021/05/02 19:47:13;;;;;;;5.40;4.37;;;;;6.50;101588.00;;;;10473096;28;20234;-77
2021/05/02 19:52:15;;;;;;;5.50;2.63;;;;;6.40;101590.00;;;;10427825;28;20265;-77
2021/05/02 19:57:16;;;;;;;3.87;2.43;;;;;6.40;101596.00;;;;10459509;28;20206;-75
2021/05/02 20:02:18;;;;;;;2.60;2.20;;;;;6.30;101592.00;;;;10447869;28;20237;-75
2021/05/02 20:07:19;;;;;;;4.63;2.30;;;;;6.20;101606.00;;;;10422239;28;20739;-75
2021/05/02 20:12:21;;;;;;;2.40;2.20;;;;;6.00;101601.00;;;;10442509;28;20218;-76
2021/05/02 20:17:22;;;;;;;4.20;2.57;;;;;5.90;101599.00;;;;10393471;28;20289;-75
2021/05/02 20:22:32;;;;;;;2.47;2.20;;;;;5.70;101605.00;;;;10421910;28;20264;-75
2021/05/02 20:27:35;;;;;;;2.80;2.17;;;;;5.60;101609.00;;;;10460568;28;20197;-75
2021/05/02 20:32:38;;;;;;;4.43;2.90;;;;;5.60;101608.00;;;;10400270;28;20581;-75
2021/05/02 20:37:40;;;;;;;3.60;2.40;;;;;5.50;101622.00;;;;10392527;28;20249;-75
2021/05/02 20:42:43;;;;;;;2.67;1.80;;;;;5.50;101625.00;;;;10461073;28;20190;-75
2021/05/02 20:47:48;;;;;;;3.27;2.50;;;;;5.50;101624.00;;;;10442881;28;20194;-75
2021/05/02 20:52:49;;;;;;;3.10;2.30;;;;;5.40;101639.00;;;;10405612;28;20218;-75
2021/05/02 20:57:51;;;;;;;3.03;2.17;;;;;5.30;101633.00;;;;10459417;28;20552;-75
2021/05/02 21:02:53;;;;;;;3.17;2.10;;;;;5.10;101641.00;;;;10465936;28;20549;-75
2021/05/02 21:07:54;;;;;;;2.50;1.80;;;;;5.00;101637.00;;;;10449083;28;20255;-75
2021/05/02 21:12:55;;;;;;;2.77;2.30;;;;;4.90;101644.00;;;;10499334;28;20216;-75
2021/05/02 21:17:57;;;;;;;3.53;2.40;;;;;4.80;101642.00;;;;10466000;28;20193;-75
2021/05/02 21:22:59;;;;;;;3.23;2.93;;;;;4.80;101642.00;;;;10448268;28;20552;-75
2021/05/02 21:28:02;;;;;;;4.03;2.80;;;;;4.80;101640.00;;;;10465952;28;20209;-76
2021/05/02 21:33:03;;;;;;;4.60;2.70;;;;;4.80;101647.00;;;;10448085;28;20205;-76
2021/05/02 21:38:05;;;;;;;3.77;2.83;;;;;4.80;101651.00;;;;10448096;28;20712;-76
2021/05/02 21:43:07;;;;;;;7.67;3.03;;;;;4.80;101646.00;;;;10464268;28;20641;-76
2021/05/02 21:48:08;;;;;;;4.43;2.73;;;;;4.80;101650.00;;;;10464037;28;20197;-76
2021/05/02 21:53:11;;;;;;;5.53;2.83;;;;;4.70;101654.00;;;;10480975;28;20219;-76
2021/05/02 21:58:12;;;;;;;7.17;3.00;;;;;4.60;101652.00;;;;10422656;28;20252;-76
2021/05/02 22:03:14;;;;;;;4.80;3.10;;;;;4.40;101659.00;;;;10422441;28;20672;-76
2021/05/02 22:08:16;;;;;;;5.43;4.10;;;;;4.30;101653.00;;;;10465036;28;20217;-77
2021/05/02 22:13:17;;;;;;;4.53;3.63;;;;;4.20;101658.00;;;;10424327;28;20268;-77
2021/05/02 22:18:25;;;;;;;7.57;4.17;;;;;4.10;101658.00;;;;10455134;28;20273;-77
2021/05/02 22:23:28;;;;;;;6.23;4.83;;;;;4.00;101668.00;;;;10457109;28;20198;-77
2021/05/02 22:28:29;;;;;;;6.83;5.03;;;;;3.90;101662.00;;;;10496800;28;20189;-77
2021/05/02 22:33:31;;;;;;;8.93;5.03;;;;;3.80;101659.00;;;;10445945;28;21060;-77
2021/05/02 22:38:33;;;;;;;6.73;4.70;;;;;3.70;101662.00;;;;10462349;28;20529;-76
2021/05/02 22:43:40;;;;;;;6.97;5.07;;;;;3.70;101659.00;;;;10485607;28;20220;-77
2021/05/02 22:48:41;;;;;;;8.37;4.90;;;;;3.70;101658.00;;;;10517665;28;20208;-76
2021/05/02 22:53:43;;;;;;;6.40;4.77;;;;;3.60;101654.00;;;;10483595;28;20224;-76
2021/05/02 22:58:44;;;;;;;8.77;5.00;;;;;3.50;101656.00;;;;10494337;28;20190;-76
2021/05/02 23:03:45;;;;;;;6.23;4.27;;;;;3.40;101654.00;;;;10494896;28;20189;-78
2021/05/02 23:08:48;;;;;;;6.13;4.50;;;;;3.30;101657.00;;;;10523877;28;20320;-76
2021/05/02 23:13:49;;;;;;;13.77;4.83;;;;;3.20;101656.00;;;;10513891;28;20296;-76
2021/05/02 23:18:51;;;;;;;8.40;5.00;;;;;3.10;101659.00;;;;10447142;28;20190;-76
2021/05/02 23:23:53;;;;;;;9.70;5.00;;;;;3.00;101670.00;;;;10447080;28;20193;-76
2021/05/02 23:28:54;;;;;;;7.93;5.13;;;;;3.00;101668.00;;;;10498177;28;20249;-75
2021/05/02 23:33:56;;;;;;;5.90;4.93;;;;;2.90;101658.00;;;;10480009;28;20613;-75
2021/05/02 23:38:57;;;;;;;7.87;5.07;;;;;2.90;101647.00;;;;10496584;28;20592;-75
2021/05/02 23:43:58;;;;;;;7.80;5.53;;;;;2.90;101646.00;;;;10446529;28;20190;-75
2021/05/02 23:49:00;;;;;;;11.03;5.83;;;;;2.80;101645.00;;;;10473303;28;20255;-75
2021/05/02 23:54:02;;;;;;;8.43;5.17;;;;;2.80;101652.00;;;;10496038;28;20214;-75
2021/05/02 23:59:04;;;;;;;7.17;5.33;;;;;2.70;101645.00;;;;10496117;28;20240;-75
